Time;durP1;ratioP1;P1;durP2;ratioP2;P2;SDS_P1;SDS_P2;PMS_P1;PMS_P2;Temp;Humidity;BMP_temperature;BMP_pressure;BME280_temperature;BME280_humidity;BME280_pressure;Samples;Min_cycle;Max_cycle;Signal;HPM_P1;HPM_P2
2021/08/13 00:01:34;;;;;;;5.85;3.55;;;;;;;;;;5113691;28;20393;-61
2021/08/13 00:04:01;;;;;;;3.72;3.42;;;;;;;;;;5113433;28;20031;-61
2021/08/13 00:06:26;;;;;;;3.58;3.33;;;;;;;;;;5112583;28;20032;-61
2021/08/13 00:08:52;;;;;;;4.10;3.40;;;;;;;;;;5113730;28;20032;-61
2021/08/13 00:11:17;;;;;;;3.30;3.10;;;;;;;;;;5113532;28;20114;-61
2021/08/13 00:13:43;;;;;;;8.45;3.28;;;;;;;;;;5112280;28;20023;-61
2021/08/13 00:16:09;;;;;;;4.18;3.88;;;;;;;;;;5111966;28;20039;-61
2021/08/13 00:18:35;;;;;;;3.60;3.30;;;;;;;;;;5114773;28;20016;-62
2021/08/13 00:21:01;;;;;;;3.53;3.17;;;;;;;;;;5116305;28;20419;-62
2021/08/13 00:23:26;;;;;;;3.55;3.25;;;;;;;;;;5116231;28;20014;-62
2021/08/13 00:25:52;;;;;;;3.67;3.38;;;;;;;;;;5117413;28;20035;-62
2021/08/13 00:28:17;;;;;;;3.63;2.90;;;;;;;;;;5117502;28;20027;-61
2021/08/13 00:30:42;;;;;;;3.58;3.28;;;;;;;;;;5117420;28;20031;-61
2021/08/13 00:33:08;;;;;;;4.00;3.60;;;;;;;;;;5116030;28;20062;-61
2021/08/13 00:35:34;;;;;;;4.10;3.70;;;;;;;;;;5115119;28;20035;-62
2021/08/13 00:38:00;;;;;;;3.35;3.15;;;;;;;;;;5116437;28;20351;-61
2021/08/13 00:40:25;;;;;;;5.25;3.40;;;;;;;;;;5115620;28;20035;-63
2021/08/13 00:42:52;;;;;;;4.03;3.53;;;;;;;;;;5115813;28;20111;-62
2021/08/13 00:45:17;;;;;;;3.30;3.10;;;;;;;;;;5115937;28;20115;-61
2021/08/13 00:47:57;;;;;;;3.42;3.13;;;;;;;;;;5115687;28;20016;-62
2021/08/13 00:50:34;;;;;;;3.60;3.30;;;;;;;;;;5115925;28;20073;-62
2021/08/13 00:53:00;;;;;;;3.28;3.08;;;;;;;;;;5115685;28;20031;-62
2021/08/13 00:55:25;;;;;;;5.05;3.20;;;;;;;;;;5115437;28;20012;-63
2021/08/13 00:57:56;;;;;;;3.78;3.20;;;;;;;;;;5115412;28;20023;-63
2021/08/13 01:00:50;;;;;;;3.45;2.85;;;;;;;;;;5085080;28;20027;-62
2021/08/13 01:03:16;;;;;;;3.40;3.10;;;;;;;;;;5115513;28;20027;-62
2021/08/13 01:05:48;;;;;;;3.22;3.03;;;;;;;;;;5115492;28;20382;-62
2021/08/13 01:08:14;;;;;;;4.25;3.45;;;;;;;;;;5098280;28;20085;-62
2021/08/13 01:10:49;;;;;;;3.50;3.13;;;;;;;;;;5116496;28;20058;-62
2021/08/13 01:13:31;;;;;;;4.45;3.28;;;;;;;;;;5115268;28;20037;-63
2021/08/13 01:15:59;;;;;;;3.33;3.03;;;;;;;;;;5115104;28;20081;-63
2021/08/13 01:18:36;;;;;;;3.10;2.90;;;;;;;;;;5115189;28;20023;-63
2021/08/13 01:21:08;;;;;;;4.50;2.95;;;;;;;;;;5115045;28;20028;-63
2021/08/13 01:23:40;;;;;;;2.88;2.67;;;;;;;;;;5116338;28;20523;-63
2021/08/13 01:26:08;;;;;;;3.33;2.65;;;;;;;;;;5114947;28;20042;-63
2021/08/13 01:28:37;;;;;;;6.30;3.10;;;;;;;;;;5114811;28;20020;-62
2021/08/13 01:31:08;;;;;;;3.75;2.92;;;;;;;;;;5114940;28;20031;-63
2021/08/13 01:33:36;;;;;;;4.40;3.10;;;;;;;;;;5115013;28;20068;-63
2021/08/13 01:36:04;;;;;;;3.30;3.08;;;;;;;;;;5114293;28;20586;-61
2021/08/13 01:38:34;;;;;;;3.60;3.30;;;;;;;;;;5114965;28;20462;-61
2021/08/13 01:41:01;;;;;;;;;;;;;;;;;;5115016;28;20273;-61
2021/08/13 01:43:30;;;;;;;3.13;2.90;;;;;;;;;;5114709;28;19909;-61
2021/08/13 01:45:58;;;;;;;3.10;2.90;;;;;;;;;;5097749;28;20461;-61
2021/08/13 01:48:24;;;;;;;3.33;3.03;;;;;;;;;;5114460;28;20028;-62
2021/08/13 01:50:51;;;;;;;3.35;3.13;;;;;;;;;;5114871;28;20022;-63
2021/08/13 01:53:18;;;;;;;3.28;3.08;;;;;;;;;;5097311;28;20031;-63
2021/08/13 01:55:46;;;;;;;3.38;3.10;;;;;;;;;;5114276;28;20019;-62
2021/08/13 01:58:13;;;;;;;4.40;2.80;;;;;;;;;;5114227;28;20035;-62
2021/08/13 02:00:40;;;;;;;4.18;3.55;;;;;;;;;;5114238;28;20015;-62
2021/08/13 02:03:08;;;;;;;3.42;3.13;;;;;;;;;;5114386;28;20024;-61
2021/08/13 02:05:37;;;;;;;3.65;3.35;;;;;;;;;;5114323;28;20026;-61
2021/08/13 02:08:05;;;;;;;4.10;3.08;;;;;;;;;;5114209;28;20024;-61
2021/08/13 02:10:35;;;;;;;3.83;2.83;;;;;;;;;;5114107;28;20111;-61
2021/08/13 02:13:01;;;;;;;3.85;2.67;;;;;;;;;;5114194;28;20357;-61
2021/08/13 02:15:27;;;;;;;4.68;3.15;;;;;;;;;;5114128;28;20020;-62
2021/08/13 02:17:56;;;;;;;3.38;3.08;;;;;;;;;;5113737;28;20023;-62
2021/08/13 02:20:22;;;;;;;3.33;3.08;;;;;;;;;;5113751;28;20054;-61
2021/08/13 02:22:51;;;;;;;3.25;3.05;;;;;;;;;;5113823;28;20031;-61
2021/08/13 02:25:17;;;;;;;4.30;3.38;;;;;;;;;;5113560;28;20024;-61
2021/08/13 02:27:44;;;;;;;4.97;3.50;;;;;;;;;;5113771;28;20531;-61
2021/08/13 02:30:13;;;;;;;3.83;3.20;;;;;;;;;;5113729;28;20020;-61
2021/08/13 02:32:40;;;;;;;3.35;3.15;;;;;;;;;;5113835;28;20059;-61
2021/08/13 02:35:09;;;;;;;5.65;3.25;;;;;;;;;;5113512;28;20112;-63
2021/08/13 02:37:36;;;;;;;3.58;3.28;;;;;;;;;;5113765;28;20026;-63
2021/08/13 02:40:11;;;;;;;3.08;2.72;;;;;;;;;;5113563;28;20023;-62
2021/08/13 02:42:40;;;;;;;3.67;2.90;;;;;;;;;;5113140;28;20024;-62
2021/08/13 02:45:07;;;;;;;3.17;2.88;;;;;;;;;;5113343;28;20067;-62
2021/08/13 02:47:35;;;;;;;3.33;2.97;;;;;;;;;;5113972;28;20023;-62
2021/08/13 02:50:03;;;;;;;2.85;2.72;;;;;;;;;;5113458;28;20110;-62
2021/08/13 02:52:30;;;;;;;3.83;3.05;;;;;;;;;;5113390;28;20031;-62
2021/08/13 02:54:59;;;;;;;4.82;2.85;;;;;;;;;;5113449;28;20024;-61
2021/08/13 02:57:25;;;;;;;2.88;2.67;;;;;;;;;;5113236;28;20084;-61
2021/08/13 02:59:51;;;;;;;4.05;3.03;;;;;;;;;;5113240;28;20053;-61
2021/08/13 03:02:19;;;;;;;2.95;2.72;;;;;;;;;;5113215;28;20380;-62
2021/08/13 03:04:45;;;;;;;3.60;2.97;;;;;;;;;;5113497;28;20020;-61
2021/08/13 03:07:12;;;;;;;3.72;3.40;;;;;;;;;;5096077;28;20131;-61
2021/08/13 03:09:38;;;;;;;3.88;3.13;;;;;;;;;;5113033;28;20462;-61
2021/08/13 03:12:05;;;;;;;3.35;3.10;;;;;;;;;;5114137;28;20032;-61
2021/08/13 03:14:30;;;;;;;4.78;3.05;;;;;;;;;;5114175;28;20031;-61
2021/08/13 03:16:56;;;;;;;3.45;3.15;;;;;;;;;;5112627;28;20076;-61
2021/08/13 03:19:23;;;;;;;7.93;2.97;;;;;;;;;;5113937;28;20020;-62
2021/08/13 03:21:49;;;;;;;3.47;3.17;;;;;;;;;;5112787;28;20031;-62
2021/08/13 03:24:14;;;;;;;3.75;3.38;;;;;;;;;;5112927;28;20026;-62
2021/08/13 03:26:41;;;;;;;3.55;3.28;;;;;;;;;;5112682;28;20031;-62
2021/08/13 03:29:12;;;;;;;3.00;2.80;;;;;;;;;;5112820;28;20022;-63
2021/08/13 03:31:39;;;;;;;3.33;3.03;;;;;;;;;;5112786;28;20019;-62
2021/08/13 03:34:06;;;;;;;3.20;3.00;;;;;;;;;;5112681;28;20419;-63
2021/08/13 03:36:33;;;;;;;3.22;2.92;;;;;;;;;;5095427;28;20042;-62
2021/08/13 03:38:58;;;;;;;3.03;2.83;;;;;;;;;;5112790;28;20024;-63
2021/08/13 03:41:25;;;;;;;3.60;3.30;;;;;;;;;;5111690;28;20073;-63
2021/08/13 03:43:51;;;;;;;3.45;3.08;;;;;;;;;;5112067;28;20478;-61
2021/08/13 03:46:17;;;;;;;3.50;2.95;;;;;;;;;;5111998;28;20031;-61
2021/08/13 03:48:42;;;;;;;4.00;3.05;;;;;;;;;;5112311;28;20026;-62
2021/08/13 03:51:10;;;;;;;16.02;4.25;;;;;;;;;;5112555;28;20477;-62
2021/08/13 03:53:35;;;;;;;8.48;3.83;;;;;;;;;;5115886;28;20031;-62
2021/08/13 03:56:02;;;;;;;5.95;3.72;;;;;;;;;;5117255;28;20023;-61
2021/08/13 03:58:30;;;;;;;6.40;3.50;;;;;;;;;;5115834;28;20092;-61
2021/08/13 04:00:56;;;;;;;3.85;3.42;;;;;;;;;;5114984;28;20026;-61
2021/08/13 04:03:22;;;;;;;4.07;3.72;;;;;;;;;;5114807;28;20012;-61
2021/08/13 04:05:49;;;;;;;3.38;3.10;;;;;;;;;;5114930;28;20024;-63
2021/08/13 04:08:14;;;;;;;3.63;3.33;;;;;;;;;;5116378;28;20030;-63
2021/08/13 04:10:40;;;;;;;3.65;3.35;;;;;;;;;;5117523;28;20033;-62
2021/08/13 04:13:07;;;;;;;4.55;3.33;;;;;;;;;;5116285;28;20012;-62
2021/08/13 04:15:39;;;;;;;9.00;4.05;;;;;;;;;;5115985;28;20043;-62
2021/08/13 04:18:07;;;;;;;7.00;4.20;;;;;;;;;;5115931;28;20093;-62
2021/08/13 04:20:32;;;;;;;3.67;3.38;;;;;;;;;;5115656;28;20016;-62
2021/08/13 04:23:02;;;;;;;5.15;4.10;;;;;;;;;;5099774;28;20042;-62
2021/08/13 04:25:28;;;;;;;4.07;3.75;;;;;;;;;;5117173;28;20024;-62
2021/08/13 04:27:55;;;;;;;4.75;3.38;;;;;;;;;;5115771;28;20031;-62
2021/08/13 04:30:21;;;;;;;3.78;3.50;;;;;;;;;;5098818;28;20027;-62
2021/08/13 04:32:47;;;;;;;3.58;3.38;;;;;;;;;;5117064;28;20027;-62
2021/08/13 04:35:12;;;;;;;3.88;3.58;;;;;;;;;;5115042;28;20048;-62
2021/08/13 04:37:38;;;;;;;3.70;3.25;;;;;;;;;;5115667;28;20381;-62
2021/08/13 04:40:04;;;;;;;3.90;3.55;;;;;;;;;;5115589;28;20024;-62
2021/08/13 04:42:34;;;;;;;4.57;4.10;;;;;;;;;;5115743;28;20481;-62
2021/08/13 04:45:00;;;;;;;4.68;3.90;;;;;;;;;;5115595;28;20118;-62
2021/08/13 04:47:26;;;;;;;4.70;4.25;;;;;;;;;;5115456;28;20076;-61
2021/08/13 04:49:53;;;;;;;3.97;3.65;;;;;;;;;;5115336;28;20462;-62
2021/08/13 04:52:20;;;;;;;8.25;4.78;;;;;;;;;;5115376;28;20023;-62
2021/08/13 04:54:48;;;;;;;4.60;4.03;;;;;;;;;;5115333;28;20477;-62
2021/08/13 04:57:15;;;;;;;6.72;3.90;;;;;;;;;;5115460;28;20081;-62
2021/08/13 04:59:41;;;;;;;5.32;3.88;;;;;;;;;;5115324;28;20019;-62
2021/08/13 05:02:10;;;;;;;4.07;3.78;;;;;;;;;;5115214;28;20031;-62
2021/08/13 05:04:36;;;;;;;7.57;4.00;;;;;;;;;;5114451;28;20018;-62
2021/08/13 05:07:01;;;;;;;5.05;3.70;;;;;;;;;;5115047;28;20035;-62
2021/08/13 05:09:27;;;;;;;4.30;3.90;;;;;;;;;;5115039;28;20028;-62
2021/08/13 05:11:52;;;;;;;3.92;3.70;;;;;;;;;;5116351;28;20031;-62
2021/08/13 05:14:19;;;;;;;4.63;3.83;;;;;;;;;;5115027;28;20473;-62
2021/08/13 05:16:44;;;;;;;4.40;3.78;;;;;;;;;;5116136;28;20039;-62
2021/08/13 05:19:10;;;;;;;4.10;3.70;;;;;;;;;;5114895;28;20019;-62
2021/08/13 05:21:37;;;;;;;4.32;3.97;;;;;;;;;;5114892;28;20023;-62
2021/08/13 05:24:03;;;;;;;3.88;3.58;;;;;;;;;;5114803;28;20060;-62
2021/08/13 05:26:29;;;;;;;4.88;4.35;;;;;;;;;;5114726;28;20028;-62
2021/08/13 05:28:54;;;;;;;4.47;3.97;;;;;;;;;;5097790;28;20487;-62
2021/08/13 05:31:21;;;;;;;6.22;4.22;;;;;;;;;;5114639;28;20038;-62
2021/08/13 05:33:47;;;;;;;6.05;4.22;;;;;;;;;;5115888;28;20027;-62
2021/08/13 05:36:16;;;;;;;4.53;4.13;;;;;;;;;;5114141;28;20035;-62
2021/08/13 05:38:41;;;;;;;4.60;4.20;;;;;;;;;;5114555;28;20385;-62
2021/08/13 05:41:07;;;;;;;4.50;4.07;;;;;;;;;;5115736;28;20023;-63
2021/08/13 05:43:32;;;;;;;4.65;4.25;;;;;;;;;;5114484;28;20504;-62
2021/08/13 05:45:58;;;;;;;9.75;4.57;;;;;;;;;;5114466;28;20094;-62
2021/08/13 05:48:23;;;;;;;5.07;3.70;;;;;;;;;;5114326;28;20031;-62
2021/08/13 05:50:50;;;;;;;4.30;3.90;;;;;;;;;;5097535;28;20019;-62
2021/08/13 05:53:16;;;;;;;4.15;3.85;;;;;;;;;;5114284;28;20023;-62
2021/08/13 05:55:41;;;;;;;5.00;4.47;;;;;;;;;;5097252;28;20145;-62
2021/08/13 05:58:07;;;;;;;4.10;3.70;;;;;;;;;;5115360;28;20047;-62
2021/08/13 06:00:32;;;;;;;4.72;4.25;;;;;;;;;;5114021;28;20020;-62
2021/08/13 06:03:05;;;;;;;7.05;4.80;;;;;;;;;;5113975;28;20115;-62
2021/08/13 06:05:34;;;;;;;4.60;4.07;;;;;;;;;;5113964;28;20032;-62
2021/08/13 06:08:03;;;;;;;4.50;4.10;;;;;;;;;;5113933;28;20554;-62
2021/08/13 06:10:28;;;;;;;4.43;4.03;;;;;;;;;;5114046;28;20401;-62
2021/08/13 06:12:54;;;;;;;4.55;4.10;;;;;;;;;;5113822;28;20035;-62
2021/08/13 06:15:21;;;;;;;4.28;3.97;;;;;;;;;;5113238;28;20039;-62
2021/08/13 06:17:47;;;;;;;4.28;4.00;;;;;;;;;;5113151;28;20024;-62
2021/08/13 06:20:13;;;;;;;5.10;4.55;;;;;;;;;;5114944;28;20024;-62
2021/08/13 06:22:42;;;;;;;6.78;4.22;;;;;;;;;;5113731;28;20034;-62
2021/08/13 06:25:07;;;;;;;4.40;4.00;;;;;;;;;;5113321;28;20044;-62
2021/08/13 06:27:33;;;;;;;4.53;4.13;;;;;;;;;;5113528;28;20031;-62
2021/08/13 06:29:59;;;;;;;4.65;4.10;;;;;;;;;;5113499;28;20050;-62
2021/08/13 06:32:26;;;;;;;4.20;3.90;;;;;;;;;;5114717;28;20446;-62
2021/08/13 06:34:51;;;;;;;4.28;3.88;;;;;;;;;;5113380;28;20473;-62
2021/08/13 06:37:17;;;;;;;4.88;3.95;;;;;;;;;;5113361;28;20042;-62
2021/08/13 06:39:42;;;;;;;5.90;4.00;;;;;;;;;;5113290;28;20031;-62
2021/08/13 06:42:11;;;;;;;5.85;4.10;;;;;;;;;;5113228;28;20024;-62
2021/08/13 06:44:46;;;;;;;4.20;4.00;;;;;;;;;;5113363;28;20448;-62
2021/08/13 06:47:13;;;;;;;8.82;4.20;;;;;;;;;;5113156;28;20031;-62
2021/08/13 06:49:38;;;;;;;5.60;4.15;;;;;;;;;;5113191;28;20487;-62
2021/08/13 06:52:07;;;;;;;10.07;4.13;;;;;;;;;;5114364;28;20036;-62
2021/08/13 06:54:32;;;;;;;7.32;4.20;;;;;;;;;;5113102;28;20051;-62
2021/08/13 06:56:58;;;;;;;4.75;4.30;;;;;;;;;;5112888;28;20074;-62
2021/08/13 06:59:24;;;;;;;5.28;4.43;;;;;;;;;;5112915;28;20019;-62
2021/08/13 07:01:50;;;;;;;4.57;4.00;;;;;;;;;;5112993;28;20024;-62
2021/08/13 07:04:16;;;;;;;5.45;3.65;;;;;;;;;;5114150;27;20474;-62
2021/08/13 07:06:41;;;;;;;5.55;3.92;;;;;;;;;;5114035;28;20477;-62
2021/08/13 07:09:06;;;;;;;5.53;4.35;;;;;;;;;;5112707;28;20015;-62
2021/08/13 07:11:32;;;;;;;4.30;4.00;;;;;;;;;;5112842;28;20057;-62
2021/08/13 07:13:57;;;;;;;5.00;4.60;;;;;;;;;;5114169;28;20023;-62
2021/08/13 07:16:23;;;;;;;4.30;4.00;;;;;;;;;;5112651;28;20096;-62
2021/08/13 07:18:48;;;;;;;6.22;4.25;;;;;;;;;;5112203;28;20016;-62
2021/08/13 07:21:14;;;;;;;4.90;4.50;;;;;;;;;;5112705;28;20024;-62
2021/08/13 07:23:41;;;;;;;4.70;4.25;;;;;;;;;;5112545;28;20027;-62
2021/08/13 07:26:08;;;;;;;4.72;4.32;;;;;;;;;;5112508;28;20036;-62
2021/08/13 07:28:33;;;;;;;4.70;4.30;;;;;;;;;;5113448;28;20016;-62
2021/08/13 07:30:59;;;;;;;5.28;4.35;;;;;;;;;;5112406;28;20032;-62
2021/08/13 07:33:33;;;;;;;4.43;4.03;;;;;;;;;;5112609;28;20043;-62
2021/08/13 07:35:59;;;;;;;4.25;3.80;;;;;;;;;;5113028;28;20074;-62
2021/08/13 07:38:26;;;;;;;6.20;4.15;;;;;;;;;;5112382;28;20088;-62
2021/08/13 07:40:52;;;;;;;4.32;4.03;;;;;;;;;;5112310;28;20028;-62
2021/08/13 07:43:18;;;;;;;7.28;4.72;;;;;;;;;;5112375;28;20030;-62
2021/08/13 07:45:43;;;;;;;23.80;5.32;;;;;;;;;;5095385;28;20107;-62
2021/08/13 07:48:08;;;;;;;5.45;4.60;;;;;;;;;;5113619;28;20469;-62
2021/08/13 07:50:36;;;;;;;4.63;4.28;;;;;;;;;;5112185;28;20027;-62
2021/08/13 07:53:01;;;;;;;6.22;4.45;;;;;;;;;;5112306;28;20026;-62
2021/08/13 07:55:29;;;;;;;4.38;4.07;;;;;;;;;;5113619;28;20020;-62
2021/08/13 07:57:55;;;;;;;4.05;3.75;;;;;;;;;;5112165;28;20012;-62
2021/08/13 08:00:21;;;;;;;4.50;4.10;;;;;;;;;;5112240;28;20027;-62
2021/08/13 08:02:50;;;;;;;7.13;4.47;;;;;;;;;;5113709;28;20377;-62
2021/08/13 08:05:16;;;;;;;5.78;4.43;;;;;;;;;;5113603;28;20065;-62
2021/08/13 08:07:41;;;;;;;5.40;4.90;;;;;;;;;;5113481;28;20024;-62
2021/08/13 08:10:06;;;;;;;4.60;4.20;;;;;;;;;;5113423;28;20120;-62
2021/08/13 08:12:32;;;;;;;6.50;4.43;;;;;;;;;;5113207;28;20050;-62
2021/08/13 08:14:57;;;;;;;6.15;4.60;;;;;;;;;;5113217;28;20126;-62
2021/08/13 08:17:22;;;;;;;4.53;3.95;;;;;;;;;;5113244;28;20073;-62
2021/08/13 08:19:48;;;;;;;5.00;4.38;;;;;;;;;;5113167;28;20036;-62
2021/08/13 08:22:13;;;;;;;5.18;4.35;;;;;;;;;;5113329;28;20072;-62
2021/08/13 08:24:40;;;;;;;6.40;4.07;;;;;;;;;;5113379;28;20126;-62
2021/08/13 08:27:06;;;;;;;5.43;4.68;;;;;;;;;;5113175;28;20024;-62
2021/08/13 08:29:31;;;;;;;5.22;4.25;;;;;;;;;;5113345;28;20039;-62
2021/08/13 08:31:57;;;;;;;6.40;3.70;;;;;;;;;;5113184;28;20062;-62
2021/08/13 08:34:22;;;;;;;5.43;4.05;;;;;;;;;;5113508;28;20036;-62
2021/08/13 08:36:47;;;;;;;4.93;4.22;;;;;;;;;;5112841;28;20036;-62
2021/08/13 08:39:13;;;;;;;4.13;3.83;;;;;;;;;;5114222;28;20053;-62
2021/08/13 08:41:38;;;;;;;7.03;3.83;;;;;;;;;;5116928;28;20015;-62
2021/08/13 08:44:04;;;;;;;4.35;3.95;;;;;;;;;;5117106;28;20034;-62
2021/08/13 08:46:30;;;;;;;3.63;3.42;;;;;;;;;;5115551;28;20012;-62
2021/08/13 08:48:56;;;;;;;3.75;3.42;;;;;;;;;;5116817;28;20050;-62
2021/08/13 08:51:22;;;;;;;4.05;3.67;;;;;;;;;;5116826;28;20019;-62
2021/08/13 08:53:52;;;;;;;5.18;3.75;;;;;;;;;;5117008;28;20028;-62
2021/08/13 08:56:18;;;;;;;3.55;3.25;;;;;;;;;;5116668;28;20046;-62
2021/08/13 08:58:44;;;;;;;4.00;3.67;;;;;;;;;;5116718;28;20019;-62
2021/08/13 09:01:11;;;;;;;4.07;3.40;;;;;;;;;;5116594;28;20036;-62
2021/08/13 09:03:37;;;;;;;4.18;3.88;;;;;;;;;;5116788;28;20011;-62
2021/08/13 09:06:03;;;;;;;4.95;3.70;;;;;;;;;;5116042;28;20378;-62
2021/08/13 09:08:28;;;;;;;4.57;4.28;;;;;;;;;;5116370;28;20028;-62
2021/08/13 09:10:54;;;;;;;3.88;3.67;;;;;;;;;;5116367;28;20042;-62
2021/08/13 09:13:23;;;;;;;3.92;3.50;;;;;;;;;;5116294;28;20016;-62
2021/08/13 09:15:48;;;;;;;4.05;3.78;;;;;;;;;;5116364;28;20031;-62
2021/08/13 09:18:21;;;;;;;4.15;3.85;;;;;;;;;;5116082;28;20482;-62
2021/08/13 09:20:55;;;;;;;6.18;3.55;;;;;;;;;;5116042;28;20036;-62
2021/08/13 09:23:27;;;;;;;4.30;3.72;;;;;;;;;;5116388;28;20385;-62
2021/08/13 09:25:56;;;;;;;4.93;3.60;;;;;;;;;;5116112;28;20038;-62
2021/08/13 09:28:47;;;;;;;4.30;3.75;;;;;;;;;;5116356;28;20034;-62
2021/08/13 09:31:16;;;;;;;3.25;3.05;;;;;;;;;;5114814;28;20114;-62
2021/08/13 09:33:42;;;;;;;4.30;3.88;;;;;;;;;;5115991;28;20490;-62
2021/08/13 09:36:08;;;;;;;6.03;3.72;;;;;;;;;;5115303;28;20040;-62
2021/08/13 09:38:33;;;;;;;3.35;3.03;;;;;;;;;;5115712;28;20030;-62
2021/08/13 09:41:13;;;;;;;4.50;3.40;;;;;;;;;;5115750;28;20019;-62
2021/08/13 09:44:10;;;;;;;3.53;3.22;;;;;;;;;;5115898;28;20466;-62
2021/08/13 09:46:36;;;;;;;4.22;3.03;;;;;;;;;;5081006;28;20044;-62
2021/08/13 09:49:15;;;;;;;3.80;3.50;;;;;;;;;;5114336;28;20020;-62
2021/08/13 09:51:42;;;;;;;4.18;3.75;;;;;;;;;;5115273;27;20119;-62
2021/08/13 09:54:09;;;;;;;4.15;3.75;;;;;;;;;;5115578;28;20020;-61
2021/08/13 09:56:38;;;;;;;3.55;3.30;;;;;;;;;;5114030;28;20084;-62
2021/08/13 09:59:13;;;;;;;3.63;3.33;;;;;;;;;;5113957;28;20024;-62
2021/08/13 10:01:47;;;;;;;5.30;3.47;;;;;;;;;;5114240;28;20040;-62
2021/08/13 10:04:14;;;;;;;5.38;3.67;;;;;;;;;;5115319;28;20033;-62
2021/08/13 10:06:41;;;;;;;3.70;3.25;;;;;;;;;;5114016;28;20016;-62
2021/08/13 10:09:20;;;;;;;3.65;3.40;;;;;;;;;;5113884;28;20119;-62
2021/08/13 10:11:54;;;;;;;3.75;3.47;;;;;;;;;;5113832;28;20027;-62
2021/08/13 10:14:26;;;;;;;5.47;3.70;;;;;;;;;;5115200;28;20028;-62
2021/08/13 10:17:04;;;;;;;3.60;3.40;;;;;;;;;;5114993;28;20435;-62
2021/08/13 10:19:33;;;;;;;4.10;3.80;;;;;;;;;;5113956;28;20028;-62
2021/08/13 10:21:58;;;;;;;6.15;3.97;;;;;;;;;;5113824;28;20424;-62
2021/08/13 10:24:24;;;;;;;3.83;3.50;;;;;;;;;;5113677;28;20026;-62
2021/08/13 10:26:50;;;;;;;3.33;3.13;;;;;;;;;;5113584;28;20026;-62
2021/08/13 10:29:16;;;;;;;4.72;3.55;;;;;;;;;;5113518;28;20385;-62
2021/08/13 10:31:42;;;;;;;3.45;3.00;;;;;;;;;;5113554;28;20022;-62
2021/08/13 10:34:10;;;;;;;3.22;3.03;;;;;;;;;;5113531;28;20101;-62
2021/08/13 10:36:37;;;;;;;4.45;3.45;;;;;;;;;;5113155;28;20130;-62
2021/08/13 10:39:03;;;;;;;5.00;3.50;;;;;;;;;;5114596;28;20102;-62
2021/08/13 10:41:29;;;;;;;3.97;3.05;;;;;;;;;;5113325;28;20019;-62
2021/08/13 10:43:59;;;;;;;3.75;3.30;;;;;;;;;;5113396;28;20115;-62
2021/08/13 10:46:30;;;;;;;9.52;3.92;;;;;;;;;;5113263;28;20135;-61
2021/08/13 10:48:56;;;;;;;3.83;3.53;;;;;;;;;;5113253;28;20108;-62
2021/08/13 10:51:25;;;;;;;5.28;3.17;;;;;;;;;;5113132;28;20481;-62
2021/08/13 10:54:03;;;;;;;5.88;3.35;;;;;;;;;;5112992;28;20035;-62
2021/08/13 10:56:42;;;;;;;3.55;3.25;;;;;;;;;;5113168;28;20032;-62
2021/08/13 10:59:12;;;;;;;4.25;3.65;;;;;;;;;;5112909;28;20027;-62
2021/08/13 11:02:22;;;;;;;3.45;3.15;;;;;;;;;;5112351;28;20023;-62
2021/08/13 11:04:57;;;;;;;7.72;4.20;;;;;;;;;;5034772;28;20029;-63
2021/08/13 11:07:43;;;;;;;4.40;3.65;;;;;;;;;;5034706;28;20483;-62
2021/08/13 11:10:29;;;;;;;5.72;3.90;;;;;;;;;;5092493;27;20043;-62
2021/08/13 11:13:10;;;;;;;6.97;4.20;;;;;;;;;;5098482;28;20046;-62
2021/08/13 11:15:35;;;;;;;5.45;4.20;;;;;;;;;;5112593;28;20568;-63
2021/08/13 11:18:01;;;;;;;3.95;3.53;;;;;;;;;;5114035;28;20016;-62
2021/08/13 11:20:41;;;;;;;4.28;3.70;;;;;;;;;;5112737;28;20496;-62
2021/08/13 11:23:08;;;;;;;3.10;2.90;;;;;;;;;;5112786;28;20376;-62
2021/08/13 11:25:45;;;;;;;3.88;3.13;;;;;;;;;;5112710;28;20046;-62
2021/08/13 11:28:30;;;;;;;3.58;3.25;;;;;;;;;;5112480;28;20024;-62
2021/08/13 11:30:59;;;;;;;3.38;3.17;;;;;;;;;;5096082;28;20398;-62
2021/08/13 11:33:25;;;;;;;4.40;3.42;;;;;;;;;;5112364;28;20016;-62
2021/08/13 11:35:53;;;;;;;4.18;3.45;;;;;;;;;;5111848;28;20489;-62
2021/08/13 11:38:37;;;;;;;3.50;3.20;;;;;;;;;;5112425;28;20040;-62
2021/08/13 11:41:25;;;;;;;3.22;3.03;;;;;;;;;;5112335;28;20549;-62
2021/08/13 11:44:08;;;;;;;7.07;3.67;;;;;;;;;;5112470;28;20028;-62
2021/08/13 11:46:43;;;;;;;2.92;2.72;;;;;;;;;;5112484;28;20401;-62
2021/08/13 11:49:13;;;;;;;3.65;3.20;;;;;;;;;;5112334;28;20036;-62
2021/08/13 11:51:43;;;;;;;4.00;3.30;;;;;;;;;;5112339;28;20176;-62
2021/08/13 11:54:22;;;;;;;3.50;3.30;;;;;;;;;;5112327;28;20080;-62
2021/08/13 11:56:48;;;;;;;3.55;3.25;;;;;;;;;;5112254;28;20384;-62
2021/08/13 11:59:14;;;;;;;5.55;3.53;;;;;;;;;;5113538;28;20099;-62
2021/08/13 12:01:47;;;;;;;4.00;3.53;;;;;;;;;;5112218;28;20024;-63
2021/08/13 12:04:17;;;;;;;4.32;3.58;;;;;;;;;;5112174;28;20543;-62
2021/08/13 12:07:01;;;;;;;3.57;3.27;;;;;;;;;;5112221;28;20427;-62
2021/08/13 12:09:48;;;;;;;4.18;3.88;;;;;;;;;;5112335;28;20058;-62
2021/08/13 12:12:16;;;;;;;6.15;3.85;;;;;;;;;;5112228;28;20545;-62
2021/08/13 12:14:48;;;;;;;4.45;4.15;;;;;;;;;;5115211;28;20153;-62
2021/08/13 12:17:14;;;;;;;3.90;3.50;;;;;;;;;;5116040;28;20046;-63
2021/08/13 12:19:39;;;;;;;4.55;3.67;;;;;;;;;;5116142;28;20450;-62
2021/08/13 12:22:07;;;;;;;4.13;3.75;;;;;;;;;;5116063;28;20481;-62
2021/08/13 12:24:40;;;;;;;3.92;3.63;;;;;;;;;;5115816;28;20023;-60
2021/08/13 12:27:07;;;;;;;4.13;3.63;;;;;;;;;;5116196;28;20067;-60
2021/08/13 12:29:38;;;;;;;3.88;3.58;;;;;;;;;;5117631;28;20047;-60
2021/08/13 12:32:05;;;;;;;4.40;4.00;;;;;;;;;;5115965;28;20089;-60
2021/08/13 12:34:31;;;;;;;4.43;4.05;;;;;;;;;;5115985;28;20062;-60
2021/08/13 12:37:07;;;;;;;4.68;4.28;;;;;;;;;;5115932;28;20047;-61
2021/08/13 12:39:43;;;;;;;5.38;3.78;;;;;;;;;;5117266;28;20028;-61
2021/08/13 12:42:10;;;;;;;3.88;3.58;;;;;;;;;;5098727;28;20059;-61
2021/08/13 12:44:38;;;;;;;3.95;3.15;;;;;;;;;;5098730;28;20106;-61
2021/08/13 12:47:04;;;;;;;3.05;2.85;;;;;;;;;;5115727;28;20035;-61
2021/08/13 12:49:30;;;;;;;5.43;3.45;;;;;;;;;;5115257;28;20024;-61
2021/08/13 12:52:08;;;;;;;4.18;3.78;;;;;;;;;;5115937;28;20023;-61
2021/08/13 12:54:34;;;;;;;3.92;3.45;;;;;;;;;;5115797;28;20618;-61
2021/08/13 12:57:01;;;;;;;3.85;3.40;;;;;;;;;;5115481;28;20023;-61
2021/08/13 12:59:37;;;;;;;4.40;3.42;;;;;;;;;;5116526;28;20015;-61
2021/08/13 13:02:04;;;;;;;5.57;3.63;;;;;;;;;;5115228;28;20038;-61
2021/08/13 13:04:38;;;;;;;3.38;3.17;;;;;;;;;;5115211;28;20019;-61
2021/08/13 13:07:11;;;;;;;4.57;3.22;;;;;;;;;;5115169;28;20432;-61
2021/08/13 13:09:40;;;;;;;3.97;3.17;;;;;;;;;;5115123;28;20038;-61
2021/08/13 13:12:19;;;;;;;3.63;3.35;;;;;;;;;;5099647;28;20015;-61
2021/08/13 13:14:46;;;;;;;5.07;3.38;;;;;;;;;;5114977;28;20419;-61
2021/08/13 13:17:12;;;;;;;3.20;3.00;;;;;;;;;;5114856;28;20076;-61
2021/08/13 13:20:05;;;;;;;3.25;3.05;;;;;;;;;;5114951;28;20035;-61
2021/08/13 13:22:30;;;;;;;4.60;3.00;;;;;;;;;;5114859;28;20381;-61
2021/08/13 13:25:11;;;;;;;3.50;3.13;;;;;;;;;;5115506;28;20024;-61
2021/08/13 13:28:06;;;;;;;3.67;3.37;;;;;;;;;;5102993;28;20486;-61
2021/08/13 13:30:51;;;;;;;3.40;3.20;;;;;;;;;;5116323;28;20314;-61
2021/08/13 13:33:29;;;;;;;3.35;3.10;;;;;;;;;;5115913;28;20048;-61
2021/08/13 13:36:21;;;;;;;3.45;2.97;;;;;;;;;;5114034;28;20093;-61
2021/08/13 13:38:51;;;;;;;3.25;3.05;;;;;;;;;;5114497;28;20028;-61
2021/08/13 13:41:16;;;;;;;3.90;3.50;;;;;;;;;;5114579;28;20026;-61
2021/08/13 13:43:43;;;;;;;3.55;3.35;;;;;;;;;;5114515;28;20024;-61
2021/08/13 13:46:08;;;;;;;4.88;3.20;;;;;;;;;;5114518;28;20008;-61
2021/08/13 13:48:34;;;;;;;4.07;3.35;;;;;;;;;;5115646;28;20020;-61
2021/08/13 13:50:59;;;;;;;3.45;3.15;;;;;;;;;;5114320;28;20485;-61
2021/08/13 13:53:25;;;;;;;3.60;3.30;;;;;;;;;;5097418;28;20556;-61
2021/08/13 13:55:51;;;;;;;3.55;3.35;;;;;;;;;;5114206;28;20020;-61
2021/08/13 13:58:17;;;;;;;4.75;3.60;;;;;;;;;;5097115;28;20027;-61
2021/08/13 14:00:43;;;;;;;3.35;3.13;;;;;;;;;;5114065;28;20020;-61
2021/08/13 14:03:09;;;;;;;4.72;3.40;;;;;;;;;;5113925;28;20041;-61
2021/08/13 14:05:35;;;;;;;3.40;3.20;;;;;;;;;;5113830;28;20028;-61
2021/08/13 14:08:00;;;;;;;4.03;3.70;;;;;;;;;;5113846;28;20023;-61
2021/08/13 14:10:28;;;;;;;3.72;3.42;;;;;;;;;;5113941;28;20380;-61
2021/08/13 14:13:02;;;;;;;3.75;3.35;;;;;;;;;;5113732;28;20027;-61
2021/08/13 14:15:28;;;;;;;3.63;3.33;;;;;;;;;;5113656;28;20031;-61
2021/08/13 14:17:53;;;;;;;3.42;3.13;;;;;;;;;;5114931;28;20111;-61
2021/08/13 14:20:19;;;;;;;4.03;3.72;;;;;;;;;;5113693;28;20407;-61
2021/08/13 14:22:45;;;;;;;4.63;3.80;;;;;;;;;;5113607;28;20422;-61
2021/08/13 14:25:12;;;;;;;3.80;3.50;;;;;;;;;;5113483;28;20118;-61
2021/08/13 14:27:37;;;;;;;4.05;3.72;;;;;;;;;;5113749;28;20030;-61
2021/08/13 14:30:05;;;;;;;4.00;3.70;;;;;;;;;;5113651;28;20087;-61
2021/08/13 14:32:31;;;;;;;5.05;3.65;;;;;;;;;;5113254;28;20419;-61
2021/08/13 14:34:57;;;;;;;4.03;3.65;;;;;;;;;;5113293;28;20035;-61
2021/08/13 14:37:22;;;;;;;4.40;4.00;;;;;;;;;;5112349;28;20024;-61
2021/08/13 14:39:48;;;;;;;5.30;3.90;;;;;;;;;;5113343;28;20059;-61
2021/08/13 14:42:13;;;;;;;4.90;3.63;;;;;;;;;;5113332;28;20114;-61
2021/08/13 14:44:39;;;;;;;6.90;3.80;;;;;;;;;;5113365;28;20032;-61
2021/08/13 14:47:04;;;;;;;4.10;3.67;;;;;;;;;;5114613;27;20023;-61
2021/08/13 14:49:30;;;;;;;4.10;3.75;;;;;;;;;;5113131;28;20035;-61
2021/08/13 14:51:55;;;;;;;4.35;3.78;;;;;;;;;;5113128;28;20025;-61